sensor_id;sensor_type;location;lat;lon;timestamp;P1;durP1;ratioP1;P2;durP2;ratioP2
30818;SDS011;17546;42.674;23.284;2023-05-15T00:06:32;10.68;;;7.60;;
30818;SDS011;17546;42.674;23.284;2023-05-15T00:08:57;12.60;;;8.10;;
30818;SDS011;17546;42.674;23.284;2023-05-15T00:39:01;17.70;;;7.63;;
30818;SDS011;17546;42.674;23.284;2023-05-15T00:41:26;16.23;;;8.15;;
30818;SDS011;17546;42.674;23.284;2023-05-15T00:43:56;17.20;;;8.60;;
30818;SDS011;17546;42.674;23.284;2023-05-15T01:47:26;15.57;;;8.30;;
30818;SDS011;17546;42.674;23.284;2023-05-15T01:50:06;14.93;;;8.85;;
30818;SDS011;17546;42.674;23.284;2023-05-15T01:59:47;13.80;;;9.35;;
30818;SDS011;17546;42.674;23.284;2023-05-15T02:02:14;16.85;;;8.75;;
30818;SDS011;17546;42.674;23.284;2023-05-15T02:04:41;13.93;;;8.77;;
30818;SDS011;17546;42.674;23.284;2023-05-15T02:09:55;16.25;;;9.68;;
30818;SDS011;17546;42.674;23.284;2023-05-15T02:12:23;16.02;;;8.93;;
30818;SDS011;17546;42.674;23.284;2023-05-15T02:24:43;18.90;;;10.63;;
30818;SDS011;17546;42.674;23.284;2023-05-15T02:27:14;21.73;;;12.52;;
30818;SDS011;17546;42.674;23.284;2023-05-15T02:36:48;21.70;;;12.88;;
30818;SDS011;17546;42.674;23.284;2023-05-15T02:49:37;18.13;;;11.40;;
30818;SDS011;17546;42.674;23.284;2023-05-15T02:52:04;21.15;;;12.77;;
30818;SDS011;17546;42.674;23.284;2023-05-15T02:54:29;18.42;;;12.38;;
30818;SDS011;17546;42.674;23.284;2023-05-15T03:06:39;17.38;;;12.10;;
30818;SDS011;17546;42.674;23.284;2023-05-15T03:09:05;19.60;;;12.50;;
30818;SDS011;17546;42.674;23.284;2023-05-15T03:18:19;18.13;;;11.80;;
30818;SDS011;17546;42.674;23.284;2023-05-15T03:20:46;20.70;;;12.43;;
30818;SDS011;17546;42.674;23.284;2023-05-15T03:23:19;19.20;;;12.77;;
30818;SDS011;17546;42.674;23.284;2023-05-15T03:25:44;19.80;;;12.05;;
30818;SDS011;17546;42.674;23.284;2023-05-15T03:28:10;21.70;;;12.95;;
30818;SDS011;17546;42.674;23.284;2023-05-15T03:33:45;22.27;;;11.68;;
30818;SDS011;17546;42.674;23.284;2023-05-15T03:36:13;17.10;;;12.15;;
30818;SDS011;17546;42.674;23.284;2023-05-15T03:52:14;21.95;;;11.95;;
30818;SDS011;17546;42.674;23.284;2023-05-15T03:54:40;18.48;;;12.40;;
30818;SDS011;17546;42.674;23.284;2023-05-15T04:06:55;21.88;;;13.70;;
30818;SDS011;17546;42.674;23.284;2023-05-15T04:09:21;20.00;;;13.13;;
30818;SDS011;17546;42.674;23.284;2023-05-15T04:22:22;22.67;;;13.63;;
30818;SDS011;17546;42.674;23.284;2023-05-15T04:24:47;22.98;;;14.73;;
30818;SDS011;17546;42.674;23.284;2023-05-15T04:27:13;23.65;;;14.00;;
30818;SDS011;17546;42.674;23.284;2023-05-15T04:29:50;22.20;;;14.25;;
30818;SDS011;17546;42.674;23.284;2023-05-15T04:32:16;21.33;;;15.25;;
30818;SDS011;17546;42.674;23.284;2023-05-15T04:34:41;19.52;;;13.45;;
30818;SDS011;17546;42.674;23.284;2023-05-15T04:37:13;25.75;;;14.35;;
30818;SDS011;17546;42.674;23.284;2023-05-15T04:39:39;17.85;;;13.15;;
30818;SDS011;17546;42.674;23.284;2023-05-15T04:42:04;22.88;;;14.50;;
30818;SDS011;17546;42.674;23.284;2023-05-15T04:51:27;23.67;;;14.57;;
30818;SDS011;17546;42.674;23.284;2023-05-15T04:53:52;20.13;;;13.18;;
30818;SDS011;17546;42.674;23.284;2023-05-15T04:56:18;20.20;;;11.70;;
30818;SDS011;17546;42.674;23.284;2023-05-15T05:02:03;18.23;;;11.95;;
30818;SDS011;17546;42.674;23.284;2023-05-15T05:04:29;18.60;;;12.95;;
30818;SDS011;17546;42.674;23.284;2023-05-15T05:07:02;22.52;;;12.90;;
30818;SDS011;17546;42.674;23.284;2023-05-15T05:09:29;17.55;;;12.60;;
30818;SDS011;17546;42.674;23.284;2023-05-15T05:11:57;20.30;;;13.13;;
30818;SDS011;17546;42.674;23.284;2023-05-15T05:17:49;19.35;;;11.85;;
30818;SDS011;17546;42.674;23.284;2023-05-15T05:20:15;14.68;;;11.00;;
30818;SDS011;17546;42.674;23.284;2023-05-15T05:22:41;15.32;;;11.20;;
30818;SDS011;17546;42.674;23.284;2023-05-15T05:28:19;16.27;;;10.18;;
30818;SDS011;17546;42.674;23.284;2023-05-15T05:30:45;15.85;;;10.88;;
30818;SDS011;17546;42.674;23.284;2023-05-15T05:36:37;14.73;;;11.40;;
30818;SDS011;17546;42.674;23.284;2023-05-15T05:39:03;19.27;;;11.90;;
30818;SDS011;17546;42.674;23.284;2023-05-15T05:44:54;22.45;;;12.45;;
30818;SDS011;17546;42.674;23.284;2023-05-15T05:47:20;20.02;;;12.80;;
30818;SDS011;17546;42.674;23.284;2023-05-15T05:52:31;24.30;;;13.88;;
30818;SDS011;17546;42.674;23.284;2023-05-15T05:54:57;21.83;;;13.68;;
30818;SDS011;17546;42.674;23.284;2023-05-15T06:04:14;18.08;;;10.77;;
30818;SDS011;17546;42.674;23.284;2023-05-15T06:06:40;23.08;;;11.98;;
30818;SDS011;17546;42.674;23.284;2023-05-15T06:15:49;20.02;;;12.55;;
30818;SDS011;17546;42.674;23.284;2023-05-15T06:18:15;18.88;;;12.90;;
30818;SDS011;17546;42.674;23.284;2023-05-15T06:27:33;25.50;;;14.63;;
30818;SDS011;17546;42.674;23.284;2023-05-15T06:29:58;25.63;;;15.02;;
30818;SDS011;17546;42.674;23.284;2023-05-15T06:32:24;21.15;;;14.02;;
30818;SDS011;17546;42.674;23.284;2023-05-15T06:34:55;25.05;;;15.18;;
30818;SDS011;17546;42.674;23.284;2023-05-15T06:37:20;24.67;;;14.40;;
30818;SDS011;17546;42.674;23.284;2023-05-15T06:39:46;21.75;;;14.13;;
30818;SDS011;17546;42.674;23.284;2023-05-15T06:45:18;23.40;;;13.57;;
30818;SDS011;17546;42.674;23.284;2023-05-15T06:47:44;20.75;;;12.35;;
30818;SDS011;17546;42.674;23.284;2023-05-15T06:53:04;15.77;;;9.35;;
30818;SDS011;17546;42.674;23.284;2023-05-15T06:55:29;13.55;;;9.95;;
30818;SDS011;17546;42.674;23.284;2023-05-15T06:57:58;21.85;;;11.05;;
30818;SDS011;17546;42.674;23.284;2023-05-15T07:00:24;20.20;;;11.18;;
30818;SDS011;17546;42.674;23.284;2023-05-15T07:02:49;17.33;;;11.57;;
30818;SDS011;17546;42.674;23.284;2023-05-15T07:08:36;19.63;;;9.80;;
30818;SDS011;17546;42.674;23.284;2023-05-15T07:11:02;17.92;;;9.95;;
30818;SDS011;17546;42.674;23.284;2023-05-15T07:13:44;22.15;;;10.50;;
30818;SDS011;17546;42.674;23.284;2023-05-15T07:16:10;19.83;;;9.75;;
30818;SDS011;17546;42.674;23.284;2023-05-15T07:18:35;23.33;;;10.15;;
30818;SDS011;17546;42.674;23.284;2023-05-15T07:21:16;18.17;;;9.10;;
30818;SDS011;17546;42.674;23.284;2023-05-15T07:23:42;22.88;;;11.07;;
30818;SDS011;17546;42.674;23.284;2023-05-15T07:26:07;21.25;;;12.27;;
30818;SDS011;17546;42.674;23.284;2023-05-15T07:28:52;20.88;;;11.85;;
30818;SDS011;17546;42.674;23.284;2023-05-15T07:31:19;23.95;;;13.00;;
30818;SDS011;17546;42.674;23.284;2023-05-15T07:33:44;24.27;;;13.38;;
30818;SDS011;17546;42.674;23.284;2023-05-15T07:39:38;28.75;;;12.95;;
30818;SDS011;17546;42.674;23.284;2023-05-15T07:42:04;26.17;;;14.70;;
30818;SDS011;17546;42.674;23.284;2023-05-15T07:44:29;24.70;;;14.45;;
30818;SDS011;17546;42.674;23.284;2023-05-15T07:46:55;26.95;;;14.52;;
30818;SDS011;17546;42.674;23.284;2023-05-15T07:49:22;23.35;;;13.20;;
30818;SDS011;17546;42.674;23.284;2023-05-15T07:51:47;26.40;;;16.00;;
30818;SDS011;17546;42.674;23.284;2023-05-15T07:54:28;28.52;;;15.85;;
30818;SDS011;17546;42.674;23.284;2023-05-15T07:56:55;26.98;;;14.82;;
30818;SDS011;17546;42.674;23.284;2023-05-15T07:59:21;22.73;;;14.63;;
30818;SDS011;17546;42.674;23.284;2023-05-15T08:01:56;21.25;;;14.60;;
30818;SDS011;17546;42.674;23.284;2023-05-15T08:04:25;23.20;;;15.57;;
30818;SDS011;17546;42.674;23.284;2023-05-15T08:06:50;28.65;;;16.20;;
30818;SDS011;17546;42.674;23.284;2023-05-15T08:12:17;28.67;;;16.42;;
30818;SDS011;17546;42.674;23.284;2023-05-15T08:21:31;36.25;;;18.10;;
30818;SDS011;17546;42.674;23.284;2023-05-15T08:23:58;27.77;;;17.55;;
30818;SDS011;17546;42.674;23.284;2023-05-15T08:26:30;35.03;;;19.27;;
30818;SDS011;17546;42.674;23.284;2023-05-15T08:28:56;32.58;;;18.52;;
30818;SDS011;17546;42.674;23.284;2023-05-15T08:31:25;34.50;;;19.13;;
30818;SDS011;17546;42.674;23.284;2023-05-15T08:36:50;30.10;;;18.20;;
30818;SDS011;17546;42.674;23.284;2023-05-15T08:39:16;35.10;;;19.42;;
30818;SDS011;17546;42.674;23.284;2023-05-15T08:44:40;30.13;;;17.88;;
30818;SDS011;17546;42.674;23.284;2023-05-15T08:47:05;33.28;;;20.27;;
30818;SDS011;17546;42.674;23.284;2023-05-15T08:52:28;35.17;;;19.23;;
30818;SDS011;17546;42.674;23.284;2023-05-15T08:54:57;27.92;;;18.50;;
30818;SDS011;17546;42.674;23.284;2023-05-15T08:57:23;37.03;;;18.63;;
30818;SDS011;17546;42.674;23.284;2023-05-15T08:59:49;32.70;;;18.80;;
30818;SDS011;17546;42.674;23.284;2023-05-15T09:02:17;34.17;;;19.17;;
30818;SDS011;17546;42.674;23.284;2023-05-15T09:04:43;38.60;;;21.83;;
30818;SDS011;17546;42.674;23.284;2023-05-15T09:07:11;33.38;;;19.27;;
30818;SDS011;17546;42.674;23.284;2023-05-15T09:09:38;32.90;;;18.63;;
30818;SDS011;17546;42.674;23.284;2023-05-15T09:12:05;28.05;;;16.45;;
30818;SDS011;17546;42.674;23.284;2023-05-15T09:14:42;26.67;;;16.17;;
30818;SDS011;17546;42.674;23.284;2023-05-15T09:17:11;25.10;;;16.25;;
30818;SDS011;17546;42.674;23.284;2023-05-15T09:19:40;24.25;;;15.90;;
30818;SDS011;17546;42.674;23.284;2023-05-15T09:22:15;34.78;;;17.00;;
30818;SDS011;17546;42.674;23.284;2023-05-15T09:24:47;23.77;;;16.35;;
30818;SDS011;17546;42.674;23.284;2023-05-15T09:27:24;23.17;;;14.93;;
30818;SDS011;17546;42.674;23.284;2023-05-15T09:29:50;26.75;;;15.38;;
30818;SDS011;17546;42.674;23.284;2023-05-15T09:32:20;29.50;;;16.90;;
30818;SDS011;17546;42.674;23.284;2023-05-15T09:37:51;28.45;;;16.45;;
30818;SDS011;17546;42.674;23.284;2023-05-15T09:43:11;23.85;;;15.18;;
30818;SDS011;17546;42.674;23.284;2023-05-15T09:45:36;24.83;;;15.82;;
30818;SDS011;17546;42.674;23.284;2023-05-15T09:50:52;26.48;;;15.80;;
30818;SDS011;17546;42.674;23.284;2023-05-15T09:53:18;29.60;;;15.98;;
30818;SDS011;17546;42.674;23.284;2023-05-15T09:55:56;26.95;;;15.75;;
30818;SDS011;17546;42.674;23.284;2023-05-15T09:58:22;27.85;;;15.73;;
30818;SDS011;17546;42.674;23.284;2023-05-15T10:00:47;23.77;;;15.25;;
30818;SDS011;17546;42.674;23.284;2023-05-15T10:06:33;28.60;;;15.45;;
30818;SDS011;17546;42.674;23.284;2023-05-15T10:09:02;25.13;;;15.65;;
30818;SDS011;17546;42.674;23.284;2023-05-15T10:11:50;26.40;;;15.15;;
30818;SDS011;17546;42.674;23.284;2023-05-15T10:14:18;23.10;;;15.45;;
30818;SDS011;17546;42.674;23.284;2023-05-15T10:17:04;28.02;;;15.45;;
30818;SDS011;17546;42.674;23.284;2023-05-15T10:19:30;23.90;;;15.07;;
30818;SDS011;17546;42.674;23.284;2023-05-15T10:21:56;21.60;;;13.52;;
30818;SDS011;17546;42.674;23.284;2023-05-15T10:24:24;23.55;;;13.88;;
30818;SDS011;17546;42.674;23.284;2023-05-15T10:26:53;21.02;;;12.55;;
30818;SDS011;17546;42.674;23.284;2023-05-15T10:29:20;21.85;;;13.18;;
30818;SDS011;17546;42.674;23.284;2023-05-15T10:31:49;25.38;;;14.25;;
30818;SDS011;17546;42.674;23.284;2023-05-15T10:34:16;24.15;;;13.23;;
30818;SDS011;17546;42.674;23.284;2023-05-15T10:39:38;24.95;;;13.50;;
30818;SDS011;17546;42.674;23.284;2023-05-15T10:42:05;22.23;;;13.45;;
30818;SDS011;17546;42.674;23.284;2023-05-15T10:47:24;24.25;;;13.77;;
30818;SDS011;17546;42.674;23.284;2023-05-15T10:49:51;22.90;;;14.48;;
30818;SDS011;17546;42.674;23.284;2023-05-15T10:52:16;25.48;;;14.35;;
30818;SDS011;17546;42.674;23.284;2023-05-15T10:54:42;27.10;;;14.65;;
30818;SDS011;17546;42.674;23.284;2023-05-15T10:57:09;24.70;;;13.82;;
30818;SDS011;17546;42.674;23.284;2023-05-15T10:59:35;23.25;;;14.23;;
30818;SDS011;17546;42.674;23.284;2023-05-15T11:02:17;28.02;;;14.07;;
30818;SDS011;17546;42.674;23.284;2023-05-15T11:08:29;24.95;;;13.88;;
30818;SDS011;17546;42.674;23.284;2023-05-15T11:10:54;22.98;;;13.45;;
30818;SDS011;17546;42.674;23.284;2023-05-15T11:13:20;25.00;;;14.43;;
30818;SDS011;17546;42.674;23.284;2023-05-15T11:15:46;27.75;;;14.15;;
30818;SDS011;17546;42.674;23.284;2023-05-15T11:18:23;31.55;;;15.43;;
30818;SDS011;17546;42.674;23.284;2023-05-15T11:23:19;25.30;;;14.15;;
30818;SDS011;17546;42.674;23.284;2023-05-15T11:28:40;25.70;;;13.63;;
30818;SDS011;17546;42.674;23.284;2023-05-15T11:31:07;26.02;;;15.00;;
30818;SDS011;17546;42.674;23.284;2023-05-15T11:33:38;27.40;;;14.05;;
30818;SDS011;17546;42.674;23.284;2023-05-15T11:36:04;29.25;;;13.52;;
30818;SDS011;17546;42.674;23.284;2023-05-15T11:38:31;27.05;;;14.43;;
30818;SDS011;17546;42.674;23.284;2023-05-15T11:41:16;24.75;;;13.77;;
30818;SDS011;17546;42.674;23.284;2023-05-15T11:43:46;26.65;;;14.32;;
30818;SDS011;17546;42.674;23.284;2023-05-15T11:46:20;30.20;;;14.48;;
30818;SDS011;17546;42.674;23.284;2023-05-15T11:48:46;30.65;;;14.77;;
30818;SDS011;17546;42.674;23.284;2023-05-15T11:53:40;30.00;;;14.13;;
30818;SDS011;17546;42.674;23.284;2023-05-15T11:56:11;27.33;;;14.32;;
30818;SDS011;17546;42.674;23.284;2023-05-15T12:02:10;24.63;;;14.45;;
30818;SDS011;17546;42.674;23.284;2023-05-15T12:04:36;21.92;;;14.90;;
30818;SDS011;17546;42.674;23.284;2023-05-15T12:07:01;20.88;;;13.50;;
30818;SDS011;17546;42.674;23.284;2023-05-15T12:16:04;22.63;;;12.77;;
30818;SDS011;17546;42.674;23.284;2023-05-15T12:18:30;28.67;;;13.73;;
30818;SDS011;17546;42.674;23.284;2023-05-15T12:20:56;24.75;;;13.63;;
30818;SDS011;17546;42.674;23.284;2023-05-15T12:23:23;25.45;;;12.98;;
30818;SDS011;17546;42.674;23.284;2023-05-15T12:29:10;24.23;;;11.82;;
30818;SDS011;17546;42.674;23.284;2023-05-15T12:31:37;30.40;;;13.40;;
30818;SDS011;17546;42.674;23.284;2023-05-15T12:41:14;24.10;;;14.85;;
30818;SDS011;17546;42.674;23.284;2023-05-15T12:43:40;29.23;;;14.20;;
30818;SDS011;17546;42.674;23.284;2023-05-15T12:48:56;33.15;;;14.30;;
30818;SDS011;17546;42.674;23.284;2023-05-15T12:51:22;25.13;;;13.65;;
30818;SDS011;17546;42.674;23.284;2023-05-15T12:57:19;28.13;;;12.68;;
30818;SDS011;17546;42.674;23.284;2023-05-15T12:59:45;28.33;;;12.82;;
30818;SDS011;17546;42.674;23.284;2023-05-15T13:05:03;32.55;;;12.55;;
30818;SDS011;17546;42.674;23.284;2023-05-15T13:07:29;27.02;;;13.20;;
30818;SDS011;17546;42.674;23.284;2023-05-15T13:13:22;24.42;;;11.70;;
30818;SDS011;17546;42.674;23.284;2023-05-15T13:15:48;27.15;;;12.48;;
30818;SDS011;17546;42.674;23.284;2023-05-15T13:18:15;30.30;;;11.48;;
30818;SDS011;17546;42.674;23.284;2023-05-15T13:21:01;30.00;;;11.55;;
30818;SDS011;17546;42.674;23.284;2023-05-15T13:23:27;37.75;;;12.30;;
30818;SDS011;17546;42.674;23.284;2023-05-15T13:25:53;22.63;;;11.70;;
30818;SDS011;17546;42.674;23.284;2023-05-15T13:31:14;22.92;;;11.55;;
30818;SDS011;17546;42.674;23.284;2023-05-15T13:33:39;53.55;;;14.23;;
30818;SDS011;17546;42.674;23.284;2023-05-15T13:38:57;19.52;;;9.70;;
30818;SDS011;17546;42.674;23.284;2023-05-15T13:41:22;17.15;;;9.63;;
30818;SDS011;17546;42.674;23.284;2023-05-15T13:43:51;28.48;;;10.73;;
30818;SDS011;17546;42.674;23.284;2023-05-15T13:46:17;23.40;;;9.85;;
30818;SDS011;17546;42.674;23.284;2023-05-15T13:48:42;28.63;;;9.77;;
30818;SDS011;17546;42.674;23.284;2023-05-15T13:53:56;27.70;;;10.07;;
30818;SDS011;17546;42.674;23.284;2023-05-15T13:56:21;22.67;;;9.23;;
30818;SDS011;17546;42.674;23.284;2023-05-15T13:58:46;24.33;;;9.38;;
30818;SDS011;17546;42.674;23.284;2023-05-15T14:01:12;17.15;;;7.97;;
30818;SDS011;17546;42.674;23.284;2023-05-15T14:03:38;24.42;;;9.13;;
30818;SDS011;17546;42.674;23.284;2023-05-15T14:06:04;19.48;;;9.05;;
30818;SDS011;17546;42.674;23.284;2023-05-15T14:08:29;27.35;;;8.13;;
30818;SDS011;17546;42.674;23.284;2023-05-15T14:10:55;29.27;;;9.15;;
30818;SDS011;17546;42.674;23.284;2023-05-15T14:13:20;26.45;;;9.68;;
30818;SDS011;17546;42.674;23.284;2023-05-15T14:15:50;26.13;;;8.30;;
30818;SDS011;17546;42.674;23.284;2023-05-15T14:18:16;32.88;;;9.10;;
30818;SDS011;17546;42.674;23.284;2023-05-15T14:20:41;29.63;;;8.80;;
30818;SDS011;17546;42.674;23.284;2023-05-15T14:23:15;26.50;;;8.95;;
30818;SDS011;17546;42.674;23.284;2023-05-15T14:25:42;30.52;;;8.48;;
30818;SDS011;17546;42.674;23.284;2023-05-15T14:28:07;23.55;;;9.50;;
30818;SDS011;17546;42.674;23.284;2023-05-15T14:33:38;22.98;;;9.70;;
30818;SDS011;17546;42.674;23.284;2023-05-15T14:36:05;22.77;;;9.70;;
30818;SDS011;17546;42.674;23.284;2023-05-15T14:41:26;22.58;;;8.82;;
30818;SDS011;17546;42.674;23.284;2023-05-15T14:43:52;23.73;;;9.75;;
30818;SDS011;17546;42.674;23.284;2023-05-15T14:46:35;23.48;;;9.60;;
30818;SDS011;17546;42.674;23.284;2023-05-15T14:49:02;23.63;;;9.48;;
30818;SDS011;17546;42.674;23.284;2023-05-15T14:51:29;40.35;;;9.85;;
30818;SDS011;17546;42.674;23.284;2023-05-15T14:57:21;20.58;;;8.18;;
30818;SDS011;17546;42.674;23.284;2023-05-15T14:59:46;25.92;;;9.13;;
30818;SDS011;17546;42.674;23.284;2023-05-15T15:12:11;22.10;;;8.98;;
30818;SDS011;17546;42.674;23.284;2023-05-15T15:14:40;37.80;;;8.27;;
30818;SDS011;17546;42.674;23.284;2023-05-15T15:17:28;29.77;;;7.28;;
30818;SDS011;17546;42.674;23.284;2023-05-15T15:19:53;28.25;;;7.93;;
30818;SDS011;17546;42.674;23.284;2023-05-15T15:22:29;21.35;;;8.07;;
30818;SDS011;17546;42.674;23.284;2023-05-15T15:24:55;20.17;;;7.38;;
30818;SDS011;17546;42.674;23.284;2023-05-15T15:27:21;22.55;;;7.28;;
30818;SDS011;17546;42.674;23.284;2023-05-15T15:33:06;18.42;;;6.30;;
30818;SDS011;17546;42.674;23.284;2023-05-15T15:35:32;15.48;;;6.80;;
30818;SDS011;17546;42.674;23.284;2023-05-15T15:37:58;19.70;;;6.15;;
30818;SDS011;17546;42.674;23.284;2023-05-15T15:40:24;19.30;;;7.38;;
30818;SDS011;17546;42.674;23.284;2023-05-15T15:42:53;17.52;;;6.75;;
30818;SDS011;17546;42.674;23.284;2023-05-15T15:48:26;31.65;;;7.00;;
30818;SDS011;17546;42.674;23.284;2023-05-15T15:50:52;29.27;;;7.68;;
30818;SDS011;17546;42.674;23.284;2023-05-15T15:53:28;17.63;;;7.28;;
30818;SDS011;17546;42.674;23.284;2023-05-15T15:55:57;22.70;;;7.97;;
30818;SDS011;17546;42.674;23.284;2023-05-15T15:58:23;23.58;;;8.60;;
30818;SDS011;17546;42.674;23.284;2023-05-15T16:00:58;19.52;;;6.85;;
30818;SDS011;17546;42.674;23.284;2023-05-15T16:03:24;24.83;;;7.13;;
30818;SDS011;17546;42.674;23.284;2023-05-15T16:05:51;18.23;;;8.38;;
30818;SDS011;17546;42.674;23.284;2023-05-15T16:11:21;16.20;;;8.02;;
30818;SDS011;17546;42.674;23.284;2023-05-15T16:13:46;18.92;;;8.70;;
30818;SDS011;17546;42.674;23.284;2023-05-15T16:16:11;18.55;;;7.78;;
30818;SDS011;17546;42.674;23.284;2023-05-15T16:18:37;17.42;;;8.05;;
30818;SDS011;17546;42.674;23.284;2023-05-15T16:21:03;17.05;;;8.02;;
30818;SDS011;17546;42.674;23.284;2023-05-15T16:23:39;32.78;;;9.13;;
30818;SDS011;17546;42.674;23.284;2023-05-15T16:26:05;18.80;;;8.98;;
30818;SDS011;17546;42.674;23.284;2023-05-15T16:28:32;20.60;;;9.23;;
30818;SDS011;17546;42.674;23.284;2023-05-15T16:31:02;18.95;;;9.60;;
30818;SDS011;17546;42.674;23.284;2023-05-15T16:33:28;25.20;;;10.13;;
30818;SDS011;17546;42.674;23.284;2023-05-15T16:35:54;22.60;;;11.25;;
30818;SDS011;17546;42.674;23.284;2023-05-15T16:38:35;25.45;;;10.90;;
30818;SDS011;17546;42.674;23.284;2023-05-15T16:41:01;18.40;;;10.80;;
30818;SDS011;17546;42.674;23.284;2023-05-15T16:43:27;19.48;;;11.63;;
30818;SDS011;17546;42.674;23.284;2023-05-15T16:46:12;28.27;;;12.00;;
30818;SDS011;17546;42.674;23.284;2023-05-15T16:48:38;19.40;;;11.98;;
30818;SDS011;17546;42.674;23.284;2023-05-15T16:51:05;25.33;;;12.40;;
30818;SDS011;17546;42.674;23.284;2023-05-15T17:00:28;24.52;;;14.05;;
30818;SDS011;17546;42.674;23.284;2023-05-15T17:02:53;25.80;;;14.18;;
30818;SDS011;17546;42.674;23.284;2023-05-15T17:15:16;23.35;;;14.20;;
30818;SDS011;17546;42.674;23.284;2023-05-15T17:17:42;26.27;;;14.10;;
30818;SDS011;17546;42.674;23.284;2023-05-15T17:20:10;29.70;;;14.85;;
30818;SDS011;17546;42.674;23.284;2023-05-15T17:22:36;39.10;;;15.75;;
30818;SDS011;17546;42.674;23.284;2023-05-15T17:25:01;39.75;;;15.07;;
30818;SDS011;17546;42.674;23.284;2023-05-15T17:27:35;28.48;;;14.85;;
30818;SDS011;17546;42.674;23.284;2023-05-15T17:30:05;27.65;;;15.35;;
30818;SDS011;17546;42.674;23.284;2023-05-15T17:32:38;25.73;;;13.88;;
30818;SDS011;17546;42.674;23.284;2023-05-15T17:35:07;30.50;;;13.68;;
30818;SDS011;17546;42.674;23.284;2023-05-15T17:37:33;23.33;;;14.07;;
30818;SDS011;17546;42.674;23.284;2023-05-15T17:42:45;24.35;;;13.18;;
30818;SDS011;17546;42.674;23.284;2023-05-15T17:45:10;28.77;;;14.02;;
30818;SDS011;17546;42.674;23.284;2023-05-15T17:47:36;25.20;;;13.68;;
30818;SDS011;17546;42.674;23.284;2023-05-15T17:50:01;29.23;;;13.40;;
30818;SDS011;17546;42.674;23.284;2023-05-15T17:52:29;32.25;;;13.50;;
30818;SDS011;17546;42.674;23.284;2023-05-15T17:54:55;27.30;;;14.13;;
30818;SDS011;17546;42.674;23.284;2023-05-15T17:57:20;24.60;;;11.82;;
30818;SDS011;17546;42.674;23.284;2023-05-15T18:03:27;26.17;;;11.88;;
30818;SDS011;17546;42.674;23.284;2023-05-15T18:06:01;32.35;;;12.90;;
30818;SDS011;17546;42.674;23.284;2023-05-15T18:08:27;32.95;;;13.55;;
30818;SDS011;17546;42.674;23.284;2023-05-15T18:10:52;32.88;;;13.40;;
30818;SDS011;17546;42.674;23.284;2023-05-15T18:40:46;24.02;;;13.35;;
30818;SDS011;17546;42.674;23.284;2023-05-15T18:43:12;27.70;;;13.77;;
30818;SDS011;17546;42.674;23.284;2023-05-15T19:10:08;38.08;;;16.50;;
30818;SDS011;17546;42.674;23.284;2023-05-15T19:12:34;24.58;;;16.33;;
30818;SDS011;17546;42.674;23.284;2023-05-15T19:15:00;31.63;;;16.20;;
30818;SDS011;17546;42.674;23.284;2023-05-15T19:24:14;25.58;;;16.65;;
30818;SDS011;17546;42.674;23.284;2023-05-15T19:26:39;27.33;;;16.98;;
30818;SDS011;17546;42.674;23.284;2023-05-15T19:42:57;23.52;;;16.42;;
30818;SDS011;17546;42.674;23.284;2023-05-15T19:45:22;28.15;;;16.27;;
30818;SDS011;17546;42.674;23.284;2023-05-15T19:47:48;33.50;;;17.65;;
30818;SDS011;17546;42.674;23.284;2023-05-15T20:10:39;27.50;;;18.00;;
30818;SDS011;17546;42.674;23.284;2023-05-15T20:13:05;29.75;;;18.00;;
30818;SDS011;17546;42.674;23.284;2023-05-15T20:25:58;26.73;;;15.40;;
30818;SDS011;17546;42.674;23.284;2023-05-15T20:28:26;26.42;;;15.30;;
30818;SDS011;17546;42.674;23.284;2023-05-15T20:30:58;25.25;;;15.07;;
30818;SDS011;17546;42.674;23.284;2023-05-15T20:33:28;33.30;;;15.60;;
30818;SDS011;17546;42.674;23.284;2023-05-15T20:35:54;32.67;;;15.82;;
30818;SDS011;17546;42.674;23.284;2023-05-15T20:38:22;30.10;;;15.35;;
30818;SDS011;17546;42.674;23.284;2023-05-15T20:40:49;26.05;;;15.38;;
30818;SDS011;17546;42.674;23.284;2023-05-15T20:43:15;30.63;;;16.48;;
30818;SDS011;17546;42.674;23.284;2023-05-15T20:45:41;29.13;;;16.35;;
30818;SDS011;17546;42.674;23.284;2023-05-15T20:48:06;29.65;;;16.17;;
30818;SDS011;17546;42.674;23.284;2023-05-15T20:50:35;27.90;;;17.27;;
30818;SDS011;17546;42.674;23.284;2023-05-15T20:53:00;30.85;;;17.55;;
30818;SDS011;17546;42.674;23.284;2023-05-15T20:55:26;24.33;;;16.85;;
30818;SDS011;17546;42.674;23.284;2023-05-15T20:57:54;28.02;;;18.10;;
30818;SDS011;17546;42.674;23.284;2023-05-15T21:00:20;28.38;;;17.98;;
30818;SDS011;17546;42.674;23.284;2023-05-15T21:02:45;31.85;;;17.98;;
30818;SDS011;17546;42.674;23.284;2023-05-15T21:07:57;33.17;;;17.65;;
30818;SDS011;17546;42.674;23.284;2023-05-15T21:10:22;30.58;;;18.00;;
30818;SDS011;17546;42.674;23.284;2023-05-15T21:12:54;30.55;;;17.77;;
30818;SDS011;17546;42.674;23.284;2023-05-15T21:15:20;36.03;;;18.33;;
30818;SDS011;17546;42.674;23.284;2023-05-15T21:17:46;30.55;;;19.25;;
30818;SDS011;17546;42.674;23.284;2023-05-15T21:20:16;28.02;;;18.67;;
30818;SDS011;17546;42.674;23.284;2023-05-15T21:22:41;38.13;;;18.83;;
30818;SDS011;17546;42.674;23.284;2023-05-15T21:25:07;37.00;;;21.00;;
30818;SDS011;17546;42.674;23.284;2023-05-15T21:27:47;31.52;;;18.65;;
30818;SDS011;17546;42.674;23.284;2023-05-15T21:30:12;31.92;;;19.38;;
30818;SDS011;17546;42.674;23.284;2023-05-15T21:32:38;35.85;;;20.10;;
30818;SDS011;17546;42.674;23.284;2023-05-15T21:35:07;28.88;;;19.77;;
30818;SDS011;17546;42.674;23.284;2023-05-15T21:37:32;29.17;;;19.63;;
30818;SDS011;17546;42.674;23.284;2023-05-15T21:39:58;30.42;;;19.30;;
30818;SDS011;17546;42.674;23.284;2023-05-15T21:42:33;31.58;;;19.70;;
30818;SDS011;17546;42.674;23.284;2023-05-15T21:44:59;38.03;;;19.30;;
30818;SDS011;17546;42.674;23.284;2023-05-15T21:47:25;36.13;;;19.27;;
30818;SDS011;17546;42.674;23.284;2023-05-15T21:53:13;32.75;;;18.48;;
30818;SDS011;17546;42.674;23.284;2023-05-15T21:55:38;27.50;;;18.33;;
30818;SDS011;17546;42.674;23.284;2023-05-15T21:58:14;27.20;;;17.10;;
30818;SDS011;17546;42.674;23.284;2023-05-15T22:00:41;29.52;;;16.85;;
30818;SDS011;17546;42.674;23.284;2023-05-15T22:03:06;25.38;;;16.98;;
30818;SDS011;17546;42.674;23.284;2023-05-15T22:08:24;27.55;;;15.77;;
30818;SDS011;17546;42.674;23.284;2023-05-15T22:10:49;27.80;;;16.40;;
30818;SDS011;17546;42.674;23.284;2023-05-15T22:13:18;24.75;;;15.45;;
30818;SDS011;17546;42.674;23.284;2023-05-15T22:15:44;29.20;;;15.68;;
30818;SDS011;17546;42.674;23.284;2023-05-15T22:18:11;26.58;;;14.95;;
30818;SDS011;17546;42.674;23.284;2023-05-15T22:20:37;26.42;;;15.20;;
30818;SDS011;17546;42.674;23.284;2023-05-15T22:23:03;28.73;;;15.63;;
30818;SDS011;17546;42.674;23.284;2023-05-15T22:25:29;24.75;;;14.80;;
30818;SDS011;17546;42.674;23.284;2023-05-15T22:28:03;23.33;;;14.88;;
30818;SDS011;17546;42.674;23.284;2023-05-15T22:30:28;22.80;;;14.50;;
30818;SDS011;17546;42.674;23.284;2023-05-15T22:32:53;27.33;;;15.10;;